createdAt,value
2017-08-13T00:00:04.018Z,8.20
2017-08-13T00:02:30.483Z,7.63
2017-08-13T00:04:56.624Z,10.87
2017-08-13T00:07:22.984Z,8.97
2017-08-13T00:09:50.104Z,10.10
2017-08-13T00:12:16.530Z,8.50
2017-08-13T00:14:42.962Z,8.40
2017-08-13T00:17:09.216Z,7.80
2017-08-13T00:19:35.709Z,9.10
2017-08-13T00:22:02.229Z,8.10
2017-08-13T00:24:29.237Z,8.63
2017-08-13T00:26:55.531Z,11.27
2017-08-13T00:29:22.009Z,11.30
2017-08-13T00:31:48.262Z,8.17
2017-08-13T00:34:14.939Z,11.73
2017-08-13T00:36:42.525Z,9.30
2017-08-13T00:39:09.676Z,10.30
2017-08-13T00:41:36.322Z,9.53
2017-08-13T00:44:03.824Z,10.43
2017-08-13T00:46:30.522Z,12.50
2017-08-13T00:48:57.006Z,10.20
2017-08-13T00:51:23.201Z,11.57
2017-08-13T00:53:50.256Z,9.80
2017-08-13T00:56:16.376Z,9.97
2017-08-13T00:58:42.540Z,8.90
2017-08-13T01:01:08.858Z,9.80
2017-08-13T01:03:35.039Z,10.23
2017-08-13T01:06:01.417Z,11.50
2017-08-13T01:08:27.746Z,11.67
2017-08-13T01:10:53.896Z,9.00
2017-08-13T01:13:20.005Z,9.30
2017-08-13T01:15:47.230Z,11.63
2017-08-13T01:18:13.568Z,10.47
2017-08-13T01:20:39.919Z,10.37
2017-08-13T01:23:06.934Z,14.97
2017-08-13T01:25:33.217Z,10.70
2017-08-13T01:27:59.449Z,10.90
2017-08-13T01:30:25.876Z,14.73
2017-08-13T01:32:52.022Z,12.53
2017-08-13T01:35:19.132Z,12.10
2017-08-13T01:37:45.700Z,11.50
2017-08-13T01:40:12.651Z,11.57
2017-08-13T01:42:39.600Z,13.40
2017-08-13T01:45:06.179Z,16.33
2017-08-13T01:47:32.336Z,9.67
2017-08-13T01:49:58.476Z,11.70
2017-08-13T01:52:24.676Z,12.30
2017-08-13T01:54:50.827Z,10.87
2017-08-13T01:57:17.706Z,9.83
2017-08-13T01:59:44.012Z,13.47
2017-08-13T02:02:10.965Z,12.40
2017-08-13T02:04:37.896Z,12.57
2017-08-13T02:07:04.128Z,14.00
2017-08-13T02:09:30.280Z,13.60
2017-08-13T02:11:56.459Z,15.50
2017-08-13T02:14:23.122Z,13.23
2017-08-13T02:16:49.816Z,11.30
2017-08-13T02:19:16.105Z,11.87
2017-08-13T02:21:42.570Z,13.30
2017-08-13T02:24:08.781Z,12.67
2017-08-13T02:26:35.029Z,14.27
2017-08-13T02:29:01.392Z,15.20
2017-08-13T02:31:27.715Z,13.20
2017-08-13T02:33:53.904Z,15.63
2017-08-13T02:36:20.165Z,12.40
2017-08-13T02:38:46.374Z,13.23
2017-08-13T02:41:12.604Z,14.10
2017-08-13T02:43:38.958Z,14.70
2017-08-13T02:46:05.183Z,15.93
2017-08-13T02:48:31.382Z,12.37
2017-08-13T02:50:58.322Z,18.83
2017-08-13T02:53:24.556Z,14.30
2017-08-13T02:55:51.506Z,13.33
2017-08-13T02:58:17.775Z,12.40
2017-08-13T03:00:43.993Z,13.77
2017-08-13T03:03:10.866Z,13.00
2017-08-13T03:05:37.876Z,11.73
2017-08-13T03:08:03.989Z,13.60
2017-08-13T03:10:30.113Z,12.10
2017-08-13T03:12:56.272Z,11.77
2017-08-13T03:15:22.483Z,12.60
2017-08-13T03:17:49.319Z,13.83
2017-08-13T03:20:16.202Z,14.60
2017-08-13T03:22:42.382Z,12.00
2017-08-13T03:25:08.621Z,13.60
2017-08-13T03:27:34.828Z,14.40
2017-08-13T03:30:00.996Z,10.73
2017-08-13T03:32:27.187Z,11.13
2017-08-13T03:34:53.358Z,11.17
2017-08-13T03:37:19.599Z,12.10
2017-08-13T03:39:45.857Z,11.57
2017-08-13T03:42:12.020Z,10.23
2017-08-13T03:44:38.133Z,10.73
2017-08-13T03:47:05.015Z,16.60
2017-08-13T03:49:31.241Z,15.77
2017-08-13T03:51:58.167Z,13.33
2017-08-13T03:54:24.999Z,10.30
2017-08-13T03:56:51.890Z,10.33
2017-08-13T03:59:18.083Z,12.43
2017-08-13T04:01:51.400Z,10.60
2017-08-13T04:04:18.311Z,12.90
2017-08-13T04:06:44.425Z,11.40
2017-08-13T04:09:10.581Z,14.40
2017-08-13T04:11:36.771Z,12.57
2017-08-13T04:14:02.922Z,12.80
2017-08-13T04:16:29.074Z,13.87
2017-08-13T04:18:55.288Z,17.20
2017-08-13T04:21:21.498Z,12.97
2017-08-13T04:23:47.647Z,15.17
2017-08-13T04:26:13.749Z,11.57
2017-08-13T04:28:39.875Z,13.90
2017-08-13T04:31:06.034Z,12.83
2017-08-13T04:33:32.234Z,14.10
2017-08-13T04:35:59.085Z,13.70
2017-08-13T04:38:25.375Z,13.47
2017-08-13T04:40:51.521Z,13.07
2017-08-13T04:43:17.672Z,14.30
2017-08-13T04:45:43.932Z,12.87
2017-08-13T04:48:10.119Z,12.27
2017-08-13T04:50:36.359Z,14.53
2017-08-13T04:53:02.607Z,18.13
2017-08-13T04:55:28.789Z,13.60
2017-08-13T04:57:54.966Z,13.70
2017-08-13T05:00:21.224Z,13.70
2017-08-13T05:02:48.111Z,16.93
2017-08-13T05:05:14.314Z,13.00
2017-08-13T05:07:40.489Z,13.03
2017-08-13T05:10:07.427Z,15.30
2017-08-13T05:12:33.601Z,17.90
2017-08-13T05:14:59.777Z,17.47
2017-08-13T05:17:25.966Z,14.07
2017-08-13T05:19:52.087Z,15.03
2017-08-13T05:22:18.282Z,13.00
2017-08-13T05:24:44.442Z,14.37
2017-08-13T05:27:10.624Z,14.73
2017-08-13T05:29:36.857Z,15.40
2017-08-13T05:32:03.046Z,15.10
2017-08-13T05:34:29.895Z,13.80
2017-08-13T05:36:56.029Z,14.87
2017-08-13T05:39:22.230Z,13.87
2017-08-13T05:41:48.372Z,14.03
2017-08-13T05:44:14.538Z,13.30
2017-08-13T05:46:40.711Z,17.43
2017-08-13T05:49:06.851Z,16.77
2017-08-13T05:51:33.001Z,11.83
2017-08-13T05:53:59.219Z,16.00
2017-08-13T05:56:25.422Z,15.47
2017-08-13T05:58:51.593Z,15.20
2017-08-13T06:01:17.787Z,16.00
2017-08-13T06:03:43.977Z,14.30
2017-08-13T06:06:10.154Z,13.53
2017-08-13T06:08:36.362Z,14.07
2017-08-13T06:11:02.506Z,24.60
2017-08-13T06:13:29.411Z,15.83
2017-08-13T06:15:55.549Z,22.70
2017-08-13T06:18:22.420Z,13.23
2017-08-13T06:20:48.664Z,10.50
2017-08-13T06:23:15.639Z,10.80
2017-08-13T06:25:42.556Z,18.53
2017-08-13T06:28:08.789Z,12.47
2017-08-13T06:30:34.978Z,10.93
2017-08-13T06:33:01.104Z,9.77
2017-08-13T06:35:27.989Z,13.27
2017-08-13T06:37:54.165Z,17.97
2017-08-13T06:40:20.316Z,16.53
2017-08-13T06:42:47.316Z,13.70
2017-08-13T06:45:13.479Z,12.20
2017-08-13T06:47:39.602Z,15.87
2017-08-13T06:50:05.735Z,12.90
2017-08-13T06:52:31.835Z,16.00
2017-08-13T06:54:58.710Z,12.73
2017-08-13T06:57:25.996Z,14.90
2017-08-13T06:59:52.922Z,9.70
2017-08-13T07:02:19.126Z,15.20
2017-08-13T07:04:45.276Z,10.90
2017-08-13T07:07:11.471Z,9.60
2017-08-13T07:09:38.412Z,9.00
2017-08-13T07:12:05.298Z,9.17
2017-08-13T07:14:31.477Z,7.53
2017-08-13T07:16:57.631Z,11.83
2017-08-13T07:19:23.949Z,8.50
2017-08-13T07:21:50.094Z,7.67
2017-08-13T07:24:17.073Z,8.00
2017-08-13T07:26:43.359Z,16.40
2017-08-13T07:29:10.184Z,25.40
2017-08-13T07:31:37.049Z,9.53
2017-08-13T07:34:03.279Z,9.40
2017-08-13T07:36:30.238Z,11.37
2017-08-13T07:38:56.447Z,8.80
2017-08-13T07:41:22.688Z,7.53
2017-08-13T07:43:49.741Z,7.40
2017-08-13T07:46:15.960Z,7.90
2017-08-13T07:48:42.122Z,9.40
2017-08-13T07:51:09.029Z,9.73
2017-08-13T07:53:35.232Z,7.90
2017-08-13T07:56:02.159Z,10.73
2017-08-13T07:58:28.293Z,9.60
2017-08-13T08:00:54.458Z,9.17
2017-08-13T08:03:21.470Z,8.10
2017-08-13T08:05:47.595Z,6.37
2017-08-13T08:08:13.735Z,5.47
2017-08-13T08:10:39.889Z,6.20
2017-08-13T08:13:06.068Z,6.13
2017-08-13T08:15:32.208Z,7.77
2017-08-13T08:17:58.464Z,6.00
2017-08-13T08:20:24.664Z,7.73
2017-08-13T08:22:50.811Z,5.47
2017-08-13T08:25:16.982Z,6.80
2017-08-13T08:27:43.152Z,7.30
2017-08-13T08:30:09.313Z,6.10
2017-08-13T08:32:35.622Z,13.50
2017-08-13T08:35:01.802Z,9.77
2017-08-13T08:37:27.962Z,11.57
2017-08-13T08:39:54.250Z,5.70
2017-08-13T08:42:20.419Z,12.83
2017-08-13T08:44:46.550Z,5.87
2017-08-13T08:47:13.016Z,5.63
2017-08-13T08:49:39.199Z,5.13
2017-08-13T08:52:05.345Z,3.33
2017-08-13T08:54:31.498Z,3.90
2017-08-13T08:56:57.757Z,3.30
2017-08-13T08:59:23.911Z,3.33
2017-08-13T09:01:50.116Z,4.23
2017-08-13T09:04:16.251Z,2.90
2017-08-13T09:06:42.395Z,3.30
2017-08-13T09:09:08.671Z,3.57
2017-08-13T09:11:34.926Z,3.37
2017-08-13T09:14:01.074Z,2.73
2017-08-13T09:16:27.216Z,4.43
2017-08-13T09:18:53.336Z,2.80
2017-08-13T09:21:19.466Z,3.70
2017-08-13T09:23:45.799Z,3.37
2017-08-13T09:26:12.659Z,4.60
2017-08-13T09:28:38.894Z,3.33
2017-08-13T09:31:05.144Z,2.40
2017-08-13T09:33:31.306Z,2.90
2017-08-13T09:35:57.541Z,3.47
2017-08-13T09:38:23.727Z,3.33
2017-08-13T09:40:49.911Z,2.83
2017-08-13T09:43:16.531Z,2.10
2017-08-13T09:45:44.100Z,2.43
2017-08-13T09:48:10.822Z,3.30
2017-08-13T09:50:37.332Z,4.37
2017-08-13T09:53:03.845Z,3.43
2017-08-13T09:55:30.334Z,2.50
2017-08-13T09:57:56.595Z,1.97
2017-08-13T10:00:22.955Z,4.07
2017-08-13T10:02:49.224Z,4.30
2017-08-13T10:05:15.672Z,4.93
2017-08-13T10:07:42.072Z,3.57
2017-08-13T10:10:08.318Z,6.77
2017-08-13T10:12:34.471Z,4.30
2017-08-13T10:15:00.686Z,2.43
2017-08-13T10:17:26.831Z,2.90
2017-08-13T10:19:53.030Z,3.63
2017-08-13T10:22:19.280Z,2.40
2017-08-13T10:24:45.489Z,2.30
2017-08-13T10:27:13.438Z,5.53
2017-08-13T10:29:39.886Z,3.03
2017-08-13T10:32:06.744Z,2.60
2017-08-13T10:34:33.006Z,3.80
2017-08-13T10:36:59.382Z,4.57
2017-08-13T10:39:25.541Z,4.93
2017-08-13T10:41:52.630Z,3.37
2017-08-13T10:44:19.774Z,4.50
2017-08-13T10:46:46.346Z,3.90
2017-08-13T10:49:12.504Z,3.00
2017-08-13T10:51:38.910Z,3.27
2017-08-13T10:54:05.046Z,2.90
2017-08-13T10:56:31.235Z,4.83
2017-08-13T10:58:57.506Z,5.00
2017-08-13T11:01:23.622Z,3.00
2017-08-13T11:03:49.858Z,4.07
2017-08-13T11:06:16.911Z,7.63
2017-08-13T11:08:43.017Z,4.23
2017-08-13T11:11:09.160Z,5.13
2017-08-13T11:13:35.545Z,4.03
2017-08-13T11:16:01.783Z,6.20
2017-08-13T11:18:27.956Z,2.90
2017-08-13T11:20:54.361Z,4.00
2017-08-13T11:23:20.500Z,2.83
2017-08-13T11:25:46.648Z,2.80
2017-08-13T11:28:13.653Z,3.57
2017-08-13T11:30:39.799Z,3.17
2017-08-13T11:33:06.040Z,3.97
2017-08-13T11:35:32.366Z,2.73
2017-08-13T11:37:58.469Z,3.23
2017-08-13T11:40:24.605Z,3.17
2017-08-13T11:42:50.970Z,3.63
2017-08-13T11:45:17.248Z,5.70
2017-08-13T11:47:43.533Z,4.77
2017-08-13T11:50:12.186Z,3.20
2017-08-13T11:52:39.023Z,4.90
2017-08-13T11:55:07.162Z,4.20
2017-08-13T11:57:34.197Z,4.47
2017-08-13T12:00:01.955Z,5.77
2017-08-13T12:02:28.145Z,5.30
2017-08-13T12:04:54.407Z,2.10
2017-08-13T12:07:20.605Z,3.63
2017-08-13T12:09:46.770Z,2.50
2017-08-13T12:12:13.192Z,2.60
2017-08-13T12:14:39.397Z,2.90
2017-08-13T12:17:05.511Z,3.97
2017-08-13T12:19:31.743Z,4.90
2017-08-13T12:21:58.611Z,4.87
2017-08-13T12:24:24.871Z,2.53
2017-08-13T12:26:51.194Z,4.70
2017-08-13T12:29:17.951Z,5.03
2017-08-13T12:31:44.119Z,2.83
2017-08-13T12:34:10.372Z,2.60
2017-08-13T12:36:37.511Z,2.63
2017-08-13T12:39:03.758Z,2.80
2017-08-13T12:41:30.083Z,5.70
2017-08-13T12:43:56.399Z,6.03
2017-08-13T12:46:22.524Z,4.73
2017-08-13T12:48:49.295Z,2.60
2017-08-13T12:51:15.485Z,3.87
2017-08-13T12:53:41.765Z,4.23
2017-08-13T12:56:08.094Z,3.27
2017-08-13T12:58:34.290Z,3.00
2017-08-13T13:01:00.603Z,3.77
2017-08-13T13:03:27.474Z,2.10
2017-08-13T13:05:53.634Z,3.80
2017-08-13T13:08:19.785Z,9.97
2017-08-13T13:10:46.137Z,17.43
2017-08-13T13:13:12.337Z,4.93
2017-08-13T13:15:38.468Z,4.23
2017-08-13T13:18:04.826Z,2.33
2017-08-13T13:20:31.075Z,4.43
2017-08-13T13:22:57.228Z,3.37
2017-08-13T13:25:23.563Z,3.80
2017-08-13T13:27:49.742Z,3.03
2017-08-13T13:30:15.946Z,2.03
2017-08-13T13:32:44.288Z,6.13
2017-08-13T13:35:10.581Z,1.80
2017-08-13T13:37:36.804Z,1.90
2017-08-13T13:40:03.138Z,4.33
2017-08-13T13:42:29.781Z,3.33
2017-08-13T13:44:56.523Z,4.27
2017-08-13T13:47:22.837Z,3.00
2017-08-13T13:49:50.161Z,4.10
2017-08-13T13:52:16.326Z,3.00
2017-08-13T13:54:42.784Z,4.87
2017-08-13T13:57:10.549Z,2.73
2017-08-13T13:59:37.054Z,3.60
2017-08-13T14:02:03.401Z,3.53
2017-08-13T14:04:29.742Z,3.23
2017-08-13T14:06:55.962Z,4.50
2017-08-13T14:09:22.510Z,7.20
2017-08-13T14:11:48.739Z,7.40
2017-08-13T14:14:15.002Z,10.63
2017-08-13T14:16:41.335Z,4.63
2017-08-13T14:19:07.548Z,3.17
2017-08-13T14:21:33.937Z,3.33
2017-08-13T14:24:00.319Z,3.20
2017-08-13T14:26:26.652Z,3.67
2017-08-13T14:28:52.850Z,7.77
2017-08-13T14:31:19.242Z,4.87
2017-08-13T14:33:45.458Z,4.50
2017-08-13T14:36:11.668Z,2.50
2017-08-13T14:38:38.223Z,6.37
2017-08-13T14:41:04.466Z,2.13
2017-08-13T14:43:30.763Z,2.17
2017-08-13T14:45:57.253Z,9.60
2017-08-13T14:48:23.910Z,11.13
2017-08-13T14:50:50.606Z,4.60
2017-08-13T14:53:17.074Z,9.70
2017-08-13T14:55:44.486Z,5.47
2017-08-13T14:58:10.634Z,2.40
2017-08-13T15:00:37.503Z,11.57
2017-08-13T15:03:03.677Z,3.03
2017-08-13T15:05:29.905Z,3.47
2017-08-13T15:07:56.360Z,1.93
2017-08-13T15:10:22.680Z,2.73
2017-08-13T15:12:48.890Z,6.10
2017-08-13T15:15:15.275Z,2.30
2017-08-13T15:17:41.494Z,5.50
2017-08-13T15:20:07.706Z,3.07
2017-08-13T15:22:34.266Z,2.80
2017-08-13T15:25:01.189Z,1.60
2017-08-13T15:27:27.414Z,3.40
2017-08-13T15:29:54.534Z,5.00
2017-08-13T15:32:21.466Z,3.43
2017-08-13T15:34:47.846Z,2.60
2017-08-13T15:37:15.126Z,3.17
2017-08-13T15:39:41.423Z,2.50
2017-08-13T15:42:07.659Z,3.40
2017-08-13T15:44:34.928Z,2.83
2017-08-13T15:47:02.338Z,4.13
2017-08-13T15:49:28.571Z,3.83
2017-08-13T15:51:54.883Z,6.30
2017-08-13T15:54:21.117Z,3.60
2017-08-13T15:56:47.338Z,4.47
2017-08-13T15:59:13.805Z,5.80
2017-08-13T16:01:40.151Z,6.27
2017-08-13T16:04:06.557Z,4.73
2017-08-13T16:06:32.935Z,5.07
2017-08-13T16:09:00.378Z,4.03
2017-08-13T16:11:26.528Z,4.23
2017-08-13T16:13:52.775Z,6.50
2017-08-13T16:16:18.924Z,4.67
2017-08-13T16:18:45.261Z,5.93
2017-08-13T16:21:11.763Z,5.23
2017-08-13T16:23:38.289Z,5.97
2017-08-13T16:26:04.411Z,4.30
2017-08-13T16:28:31.922Z,7.37
2017-08-13T16:30:58.871Z,3.13
2017-08-13T16:33:25.079Z,6.33
2017-08-13T16:35:51.733Z,4.83
2017-08-13T16:38:18.047Z,8.20
2017-08-13T16:40:44.434Z,6.70
2017-08-13T16:43:10.809Z,12.53
2017-08-13T16:45:37.170Z,7.40
2017-08-13T16:48:04.028Z,6.07
2017-08-13T16:50:30.680Z,8.30
2017-08-13T16:52:56.981Z,4.87
2017-08-13T16:55:23.420Z,3.80
2017-08-13T16:57:51.291Z,4.47
2017-08-13T17:00:17.784Z,5.83
2017-08-13T17:02:44.056Z,4.17
2017-08-13T17:05:10.392Z,5.87
2017-08-13T17:07:37.050Z,7.40
2017-08-13T17:10:03.258Z,3.80
2017-08-13T17:12:29.837Z,3.50
2017-08-13T17:14:56.271Z,5.10
2017-08-13T17:17:29.724Z,3.10
2017-08-13T17:19:55.893Z,3.00
2017-08-13T17:22:22.131Z,4.33
2017-08-13T17:24:48.473Z,4.50
2017-08-13T17:27:14.951Z,7.30
2017-08-13T17:29:41.818Z,7.90
2017-08-13T17:32:08.304Z,5.30
2017-08-13T17:34:34.495Z,6.70
2017-08-13T17:37:03.248Z,14.30
2017-08-13T17:39:29.566Z,9.80
2017-08-13T17:41:57.393Z,7.50
2017-08-13T17:44:23.585Z,7.43
2017-08-13T17:46:50.105Z,9.07
2017-08-13T17:49:16.653Z,5.77
2017-08-13T17:51:44.135Z,4.83
2017-08-13T17:54:10.552Z,6.10
2017-08-13T17:56:36.944Z,13.20
2017-08-13T17:59:03.779Z,10.70
2017-08-13T18:01:30.258Z,10.83
2017-08-13T18:03:56.711Z,14.63
2017-08-13T18:06:22.883Z,13.57
2017-08-13T18:08:49.233Z,14.40
2017-08-13T18:11:15.470Z,11.63
2017-08-13T18:13:43.843Z,14.37
2017-08-13T18:16:10.623Z,18.57
2017-08-13T18:18:36.730Z,16.00
2017-08-13T18:21:03.092Z,14.33
2017-08-13T18:23:29.629Z,17.67
2017-08-13T18:25:57.821Z,15.93
2017-08-13T18:28:24.130Z,13.83
2017-08-13T18:30:50.633Z,20.10
2017-08-13T18:33:16.830Z,23.43
2017-08-13T18:35:43.983Z,26.77
2017-08-13T18:38:10.737Z,22.50
2017-08-13T18:40:36.930Z,18.13
2017-08-13T18:43:03.597Z,15.90
2017-08-13T18:45:30.178Z,18.27
2017-08-13T18:47:56.616Z,20.20
2017-08-13T18:50:22.908Z,16.90
2017-08-13T18:52:49.123Z,22.33
2017-08-13T18:55:16.058Z,20.50
2017-08-13T18:57:42.183Z,14.67
2017-08-13T19:00:09.169Z,22.53
2017-08-13T19:02:36.065Z,16.07
2017-08-13T19:05:02.724Z,16.70
2017-08-13T19:07:28.986Z,13.70
2017-08-13T19:09:55.185Z,10.73
2017-08-13T19:12:22.155Z,15.40
2017-08-13T19:14:48.427Z,12.07
2017-08-13T19:17:14.630Z,11.03
2017-08-13T19:19:41.084Z,20.23
2017-08-13T19:22:07.273Z,11.80
2017-08-13T19:24:33.443Z,14.87
2017-08-13T19:26:59.591Z,11.90
2017-08-13T19:29:25.772Z,16.23
2017-08-13T19:31:51.954Z,17.10
2017-08-13T19:34:18.128Z,16.67
2017-08-13T19:36:44.365Z,12.30
2017-08-13T19:39:10.514Z,18.10
2017-08-13T19:41:37.376Z,19.10
2017-08-13T19:44:03.584Z,17.37
2017-08-13T19:46:30.432Z,16.87
2017-08-13T19:48:57.634Z,17.03
2017-08-13T19:51:24.594Z,22.10
2017-08-13T19:53:51.534Z,21.07
2017-08-13T19:56:17.753Z,16.40
2017-08-13T19:58:43.955Z,16.97
2017-08-13T20:01:11.014Z,19.33
2017-08-13T20:03:38.040Z,19.80
2017-08-13T20:06:05.005Z,12.97
2017-08-13T20:08:31.983Z,29.40
2017-08-13T20:10:58.879Z,21.37
2017-08-13T20:13:25.090Z,19.83
2017-08-13T20:15:51.374Z,17.83
2017-08-13T20:18:17.587Z,16.47
2017-08-13T20:20:44.554Z,19.53
2017-08-13T20:23:10.885Z,20.63
2017-08-13T20:25:37.767Z,15.00
2017-08-13T20:28:05.791Z,20.10
2017-08-13T20:30:31.982Z,18.43
2017-08-13T20:32:59.999Z,18.60
2017-08-13T20:35:26.761Z,14.13
2017-08-13T20:37:52.900Z,16.43
2017-08-13T20:40:19.176Z,13.70
2017-08-13T20:42:45.437Z,17.73
2017-08-13T20:45:11.626Z,21.50
2017-08-13T20:47:38.586Z,18.27
2017-08-13T20:50:04.850Z,27.50
2017-08-13T20:52:31.022Z,19.10
2017-08-13T20:54:57.177Z,16.60
2017-08-13T20:57:23.431Z,16.57
2017-08-13T20:59:49.612Z,16.63
2017-08-13T21:02:15.767Z,17.60
2017-08-13T21:04:42.527Z,15.07
2017-08-13T21:07:08.933Z,14.50
2017-08-13T21:09:35.159Z,13.90
2017-08-13T21:12:01.969Z,16.20
2017-08-13T21:14:28.070Z,13.20
2017-08-13T21:16:54.840Z,16.00
2017-08-13T21:19:21.565Z,11.23
2017-08-13T21:21:48.101Z,16.17
2017-08-13T21:24:14.395Z,12.70
2017-08-13T21:26:55.908Z,12.93
2017-08-13T21:29:22.159Z,20.33
2017-08-13T21:31:48.611Z,16.73
2017-08-13T21:34:15.223Z,13.67
2017-08-13T21:36:41.407Z,18.20
2017-08-13T21:39:07.553Z,28.97
2017-08-13T21:41:34.030Z,11.77
2017-08-13T21:44:00.286Z,10.60
2017-08-13T21:46:27.906Z,10.33
2017-08-13T21:48:54.438Z,11.90
2017-08-13T21:51:22.386Z,10.87
2017-08-13T21:53:48.706Z,11.50
2017-08-13T21:56:15.037Z,10.70
2017-08-13T21:58:41.228Z,13.40
2017-08-13T22:01:07.442Z,13.00
2017-08-13T22:03:38.882Z,9.57
2017-08-13T22:06:05.019Z,10.27
2017-08-13T22:08:31.451Z,8.60
2017-08-13T22:10:58.483Z,11.53
2017-08-13T22:13:24.794Z,11.73
2017-08-13T22:15:51.156Z,13.07
2017-08-13T22:18:18.204Z,11.97
2017-08-13T22:20:45.171Z,10.27
2017-08-13T22:23:12.146Z,11.43
2017-08-13T22:25:45.541Z,9.97
2017-08-13T22:28:13.774Z,15.00
2017-08-13T22:30:39.901Z,10.63
2017-08-13T22:33:06.369Z,12.30
2017-08-13T22:35:32.693Z,11.03
2017-08-13T22:37:58.886Z,13.83
2017-08-13T22:40:25.189Z,13.23
2017-08-13T22:42:51.479Z,16.00
2017-08-13T22:45:17.619Z,13.70
2017-08-13T22:47:43.925Z,12.63
2017-08-13T22:50:10.074Z,12.80
2017-08-13T22:52:36.578Z,11.90
2017-08-13T22:55:02.994Z,12.80
2017-08-13T22:57:29.224Z,14.17
2017-08-13T22:59:56.860Z,11.57
2017-08-13T23:02:23.281Z,12.03
2017-08-13T23:04:49.657Z,14.63
2017-08-13T23:07:15.775Z,16.73
2017-08-13T23:09:42.812Z,16.00
2017-08-13T23:12:09.253Z,13.60
2017-08-13T23:14:35.415Z,16.20
2017-08-13T23:17:07.949Z,15.00
2017-08-13T23:19:34.152Z,15.10
2017-08-13T23:22:00.696Z,17.20
2017-08-13T23:24:27.513Z,14.03
2017-08-13T23:26:54.631Z,16.30
2017-08-13T23:29:22.243Z,17.50
2017-08-13T23:31:49.945Z,19.30
2017-08-13T23:34:18.806Z,17.63
2017-08-13T23:36:45.489Z,17.37
2017-08-13T23:39:12.292Z,16.33
2017-08-13T23:41:38.828Z,22.27
2017-08-13T23:44:05.169Z,16.00
2017-08-13T23:46:33.259Z,15.90
2017-08-13T23:49:00.364Z,19.63
2017-08-13T23:51:26.861Z,12.43
2017-08-13T23:53:54.493Z,16.20
2017-08-13T23:56:21.008Z,16.87
2017-08-13T23:58:48.317Z,19.53
